Time;durP1;ratioP1;P1;durP2;ratioP2;P2;SDS_P1;SDS_P2;PMS_P1;PMS_P2;Temp;Humidity;BMP_temperature;BMP_pressure;BME280_temperature;BME280_humidity;BME280_pressure;Samples;Min_cycle;Max_cycle;Signal;HPM_P1;HPM_P2
2021/09/06 00:00:30;;;;;;;8.70;4.80;;;;;;;23.28;51.03;100736.87;1750966;79;21030;-67
2021/09/06 00:02:56;;;;;;;10.32;4.62;;;;;;;23.28;51.01;100736.87;1765875;79;21010;-68
2021/09/06 00:05:23;;;;;;;7.92;4.58;;;;;;;23.28;51.08;100738.22;1741532;80;21059;-68
2021/09/06 00:07:51;;;;;;;5.45;4.22;;;;;;;23.29;51.07;100734.44;1752405;79;21071;-67
2021/09/06 00:10:35;;;;;;;7.08;4.95;;;;;;;23.29;51.08;100738.50;1769533;79;21070;-68
2021/09/06 00:13:03;;;;;;;5.55;4.40;;;;;;;23.30;51.09;100735.29;1770212;80;20988;-69
2021/09/06 00:15:31;;;;;;;5.33;4.20;;;;;;;23.28;51.15;100731.45;1741169;81;21057;-68
2021/09/06 00:17:59;;;;;;;7.92;4.70;;;;;;;23.29;51.14;100738.50;1756842;80;21556;-68
2021/09/06 00:20:27;;;;;;;6.60;4.45;;;;;;;23.28;51.17;100738.22;1756162;81;21063;-69
2021/09/06 00:22:55;;;;;;;4.85;3.72;;;;;;;23.29;51.16;100734.44;1738369;81;21070;-69
2021/09/06 00:25:22;;;;;;;5.65;3.90;;;;;;;23.30;51.16;100738.00;1739326;81;21103;-69
2021/09/06 00:27:50;;;;;;;6.10;4.42;;;;;;;23.30;51.17;100739.36;1738915;81;21089;-69
2021/09/06 00:30:16;;;;;;;5.60;3.77;;;;;;;23.29;51.19;100733.08;1757051;81;21041;-70
2021/09/06 00:32:44;;;;;;;6.22;3.47;;;;;;;23.30;51.14;100736.64;1741666;82;21004;-68
2021/09/06 00:35:13;;;;;;;7.10;3.62;;;;;;;23.30;51.16;100737.47;1763220;80;21091;-68
2021/09/06 00:37:41;;;;;;;6.53;4.03;;;;;;;23.30;51.16;100736.11;1752240;81;21052;-68
2021/09/06 00:40:09;;;;;;;5.70;3.50;;;;;;;23.30;51.25;100737.47;1740391;80;21084;-68
2021/09/06 00:42:37;;;;;;;5.97;4.45;;;;;;;23.29;51.21;100735.80;1742123;81;21061;-69
2021/09/06 00:45:05;;;;;;;6.37;4.00;;;;;;;23.31;51.25;100741.00;1740463;82;21082;-67
2021/09/06 00:47:36;;;;;;;6.92;4.20;;;;;;;23.31;51.39;100741.84;1725364;81;21116;-66
2021/09/06 00:50:06;;;;;;;5.33;3.70;;;;;;;23.31;51.49;100735.58;1742905;81;21024;-67
2021/09/06 00:52:35;;;;;;;4.85;3.50;;;;;;;23.31;51.55;100738.28;1732745;82;21057;-67
2021/09/06 00:55:02;;;;;;;4.95;3.90;;;;;;;23.30;51.49;100734.75;1737544;82;21581;-67
2021/09/06 00:57:28;;;;;;;4.78;3.42;;;;;;;23.31;51.52;100737.78;1765785;80;21004;-67
2021/09/06 00:59:55;;;;;;;4.70;3.37;;;;;;;23.31;51.51;100733.71;1747293;80;21772;-67
2021/09/06 01:02:22;;;;;;;4.58;3.50;;;;;;;23.31;51.48;100734.22;1761954;80;21013;-68
2021/09/06 01:04:51;;;;;;;4.33;3.08;;;;;;;23.31;51.43;100732.36;1757746;80;21031;-69
2021/09/06 01:07:36;;;;;;;4.37;3.35;;;;;;;23.31;51.40;100733.71;1756460;80;20987;-67
2021/09/06 01:10:08;;;;;;;5.70;3.80;;;;;;;23.31;51.38;100735.58;1699358;81;21083;-68
2021/09/06 01:12:45;;;;;;;4.47;3.45;;;;;;;23.31;51.44;100739.13;1765311;80;21068;-67
2021/09/06 01:17:38;;;;;;;4.65;3.02;;;;;;;23.30;51.42;100736.11;1774583;80;21536;-68
2021/09/06 01:20:06;;;;;;;5.85;3.72;;;;;;;23.31;51.33;100739.64;1740387;82;21059;-68
2021/09/06 01:22:33;;;;;;;5.60;4.22;;;;;;;23.31;51.38;100739.64;1757662;80;21051;-66
2021/09/06 01:25:14;;;;;;;5.12;3.22;;;;;;;23.31;51.40;100739.64;1737570;81;21117;-66
2021/09/06 01:27:42;;;;;;;6.55;3.90;;;;;;;23.31;51.37;100743.70;1761316;80;21039;-67
2021/09/06 01:30:10;;;;;;;4.17;3.45;;;;;;;23.31;51.34;100745.91;1757473;80;21736;-66
2021/09/06 01:32:37;;;;;;;4.85;3.17;;;;;;;23.31;51.27;100751.33;1749844;80;21015;-67
2021/09/06 01:35:06;;;;;;;3.95;3.30;;;;;;;23.31;51.31;100746.41;1740257;81;21009;-66
2021/09/06 01:37:33;;;;;;;4.60;3.40;;;;;;;23.31;51.27;100749.98;1752963;80;21079;-67
2021/09/06 01:40:01;;;;;;;5.40;3.87;;;;;;;23.31;51.27;100752.69;1754619;80;21083;-67
2021/09/06 01:42:29;;;;;;;4.87;3.40;;;;;;;23.31;51.25;100751.33;1763727;80;21094;-68
2021/09/06 01:44:57;;;;;;;5.28;3.55;;;;;;;23.30;51.29;100744.78;1723984;82;21068;-68
2021/09/06 01:47:26;;;;;;;4.20;3.30;;;;;;;23.31;51.30;100750.48;1763176;80;21055;-69
2021/09/06 01:49:52;;;;;;;4.20;3.30;;;;;;;23.31;51.28;100755.91;1778722;80;21124;-67
2021/09/06 01:52:19;;;;;;;3.83;2.85;;;;;;;23.31;51.26;100761.33;1767468;80;20980;-68
2021/09/06 01:54:46;;;;;;;4.97;3.20;;;;;;;23.32;51.25;100759.75;1732170;82;21610;-67
2021/09/06 01:57:12;;;;;;;3.40;3.05;;;;;;;23.33;51.19;100761.92;1734360;82;21493;-67
2021/09/06 01:59:39;;;;;;;4.87;3.60;;;;;;;23.32;51.20;100761.64;1745162;82;21099;-65
2021/09/06 02:02:06;;;;;;;3.77;3.02;;;;;;;23.32;51.21;100759.75;1737468;82;21147;-67
2021/09/06 02:04:37;;;;;;;3.42;2.67;;;;;;;23.32;51.17;100758.94;1726580;82;21031;-68
2021/09/06 02:07:06;;;;;;;3.85;2.90;;;;;;;23.33;51.20;100760.57;1738308;82;21475;-73
2021/09/06 02:09:33;;;;;;;6.25;3.47;;;;;;;23.32;51.43;100792.28;1747910;82;21008;-71
2021/09/06 02:12:04;;;;;;;5.10;2.85;;;;;;;23.28;52.69;100795.16;1724243;82;21000;-72
2021/09/06 02:14:33;;;;;;;3.77;3.02;;;;;;;23.20;53.39;100798.17;1706774;82;21042;-72
2021/09/06 02:17:00;;;;;;;4.65;3.20;;;;;;;23.11;54.00;100792.75;1739612;82;20996;-73
2021/09/06 02:19:29;;;;;;;5.33;3.15;;;;;;;23.01;54.52;100793.23;1732639;82;21536;-73
2021/09/06 02:21:56;;;;;;;3.87;3.00;;;;;;;22.92;55.10;100793.22;1732823;81;21209;-73
2021/09/06 02:24:24;;;;;;;4.53;2.83;;;;;;;22.84;55.49;100797.58;1741665;81;21492;-74
2021/09/06 02:26:52;;;;;;;3.62;2.60;;;;;;;22.75;55.97;100801.09;1753637;80;21566;-74
2021/09/06 02:29:19;;;;;;;3.83;3.33;;;;;;;22.66;56.26;100796.50;1769747;80;21623;-73
2021/09/06 02:31:47;;;;;;;3.27;2.65;;;;;;;22.60;56.72;100808.23;1730468;82;21117;-73
2021/09/06 02:34:22;;;;;;;4.03;2.90;;;;;;;22.53;57.10;100802.84;1726391;82;21070;-74
2021/09/06 02:36:48;;;;;;;3.65;2.70;;;;;;;22.47;57.38;100797.50;1758226;79;21025;-75
2021/09/06 02:39:16;;;;;;;4.97;2.72;;;;;;;22.40;57.80;100800.25;1762058;80;21306;-75
2021/09/06 02:41:43;;;;;;;3.98;2.90;;;;;;;22.35;58.07;100802.81;1769033;80;21047;-72
2021/09/06 02:44:10;;;;;;;3.42;3.12;;;;;;;22.29;58.25;100803.16;1774466;80;21051;-72
2021/09/06 02:46:37;;;;;;;4.28;2.75;;;;;;;22.25;58.41;100802.45;1768771;80;21106;-73
2021/09/06 02:49:04;;;;;;;3.62;2.85;;;;;;;22.21;58.77;100802.55;1740746;81;21572;-74
2021/09/06 02:51:31;;;;;;;4.83;3.33;;;;;;;22.16;58.89;100808.63;1766525;80;21139;-75
2021/09/06 02:53:58;;;;;;;3.20;2.70;;;;;;;22.12;59.10;100810.95;1735574;80;21047;-74
2021/09/06 02:56:26;;;;;;;4.25;3.17;;;;;;;22.09;59.18;100814.07;1711680;82;21027;-74
2021/09/06 02:58:54;;;;;;;3.85;2.77;;;;;;;22.05;59.31;100810.68;1763845;81;21520;-74
2021/09/06 03:01:21;;;;;;;3.50;3.17;;;;;;;22.01;59.65;100810.81;1717197;83;21114;-75
2021/09/06 03:03:48;;;;;;;3.55;2.92;;;;;;;21.97;60.04;100808.53;1744789;82;21086;-75
2021/09/06 03:06:16;;;;;;;3.65;2.92;;;;;;;21.95;60.28;100811.16;1739543;81;21517;-74
2021/09/06 03:08:43;;;;;;;3.72;3.20;;;;;;;21.90;60.33;100809.08;1770740;80;21051;-74
2021/09/06 03:11:09;;;;;;;2.98;2.67;;;;;;;21.88;60.45;100813.06;1743266;80;21146;-74
2021/09/06 03:13:36;;;;;;;3.80;3.30;;;;;;;21.85;60.54;100817.04;1704108;82;21024;-74
2021/09/06 03:16:05;;;;;;;3.40;3.00;;;;;;;21.82;60.70;100812.58;1748033;81;21101;-74
2021/09/06 03:18:34;;;;;;;3.72;3.00;;;;;;;21.79;60.85;100824.14;1756553;80;21020;-74
2021/09/06 03:21:18;;;;;;;3.08;2.72;;;;;;;21.75;60.76;100827.47;1756459;80;21082;-73
2021/09/06 03:23:45;;;;;;;4.20;3.27;;;;;;;21.70;60.92;100829.48;1756145;80;21015;-74
2021/09/06 03:26:14;;;;;;;3.45;3.10;;;;;;;21.67;60.79;100829.94;1766174;80;21023;-73
2021/09/06 03:28:43;;;;;;;5.00;3.58;;;;;;;21.65;60.78;100828.47;1735051;81;22148;-74
2021/09/06 03:31:11;;;;;;;4.22;2.98;;;;;;;21.62;60.79;100832.97;1764511;80;20992;-73
2021/09/06 03:33:38;;;;;;;3.08;2.77;;;;;;;21.57;60.70;100829.00;1768303;80;21535;-74
2021/09/06 03:36:05;;;;;;;4.17;3.60;;;;;;;21.56;60.63;100831.95;1776959;80;21528;-73
2021/09/06 03:38:33;;;;;;;3.45;3.15;;;;;;;21.52;60.55;100826.13;1723636;80;21052;-73
2021/09/06 03:41:00;;;;;;;3.50;3.10;;;;;;;21.50;60.68;100824.67;1763246;80;21797;-74
2021/09/06 03:43:28;;;;;;;3.60;3.08;;;;;;;21.48;60.36;100833.02;1760804;80;21032;-75
2021/09/06 03:45:55;;;;;;;3.65;2.72;;;;;;;21.46;60.75;100831.55;1748289;81;21005;-75
2021/09/06 03:48:21;;;;;;;3.80;3.35;;;;;;;21.44;60.66;100829.59;1761446;80;21023;-75
2021/09/06 03:50:48;;;;;;;3.83;3.10;;;;;;;21.41;60.79;100837.05;1744668;81;21522;-74
2021/09/06 03:53:15;;;;;;;3.52;3.20;;;;;;;21.39;60.87;100840.48;1738674;80;21097;-74
2021/09/06 03:55:42;;;;;;;3.37;2.87;;;;;;;21.38;61.16;100845.59;1753184;81;21525;-74
2021/09/06 03:58:09;;;;;;;3.60;2.95;;;;;;;21.36;61.00;100846.83;1733817;82;21216;-74
2021/09/06 04:00:38;;;;;;;4.08;2.90;;;;;;;21.26;60.80;100837.81;1764417;81;21069;-74
2021/09/06 04:03:06;;;;;;;4.37;3.65;;;;;;;21.31;61.33;100850.72;1727106;80;21119;-75
2021/09/06 04:05:32;;;;;;;3.80;3.30;;;;;;;21.31;61.04;100857.47;1745787;81;21803;-75
2021/09/06 04:08:02;;;;;;;2.77;2.45;;;;;;;21.28;60.89;100856.00;1741482;82;21028;-74
2021/09/06 04:10:31;;;;;;;3.55;3.25;;;;;;;21.26;60.98;100854.03;1752816;81;21085;-76
2021/09/06 04:12:59;;;;;;;3.65;3.05;;;;;;;21.24;61.16;100857.47;1753701;80;21051;-75
2021/09/06 04:15:26;;;;;;;4.62;3.50;;;;;;;21.22;60.88;100858.20;1741159;81;21048;-75
2021/09/06 04:17:53;;;;;;;3.50;3.00;;;;;;;21.21;60.96;100864.66;1736836;80;21138;-76
2021/09/06 04:20:20;;;;;;;3.50;2.80;;;;;;;21.20;60.95;100867.05;1736835;82;21045;-75
2021/09/06 04:22:46;;;;;;;3.72;3.10;;;;;;;21.19;61.11;100870.80;1744368;80;21089;-75
2021/09/06 04:25:13;;;;;;;3.92;2.80;;;;;;;21.16;60.93;100867.98;1742208;80;21047;-73
2021/09/06 04:27:40;;;;;;;3.10;2.80;;;;;;;21.16;61.14;100873.91;1746096;80;21528;-74
2021/09/06 04:30:10;;;;;;;2.62;2.42;;;;;;;21.14;61.15;100867.89;1728089;82;21196;-75
2021/09/06 04:32:37;;;;;;;3.05;2.70;;;;;;;21.13;61.11;100871.13;1745299;80;21051;-75
2021/09/06 04:35:05;;;;;;;3.30;2.75;;;;;;;21.12;61.24;100875.38;1748662;80;21032;-75
2021/09/06 04:37:32;;;;;;;2.92;2.62;;;;;;;21.11;61.06;100877.75;1767685;80;21079;-75
2021/09/06 04:40:00;;;;;;;3.10;2.80;;;;;;;21.09;61.36;100880.66;1741228;80;21027;-75
2021/09/06 04:42:27;;;;;;;3.52;3.05;;;;;;;21.07;61.16;100881.92;1739112;81;21131;-76
2021/09/06 04:44:55;;;;;;;2.85;2.65;;;;;;;21.05;61.30;100878.60;1737901;80;21627;-74
2021/09/06 04:47:22;;;;;;;3.20;2.70;;;;;;;21.04;61.08;100884.53;1751188;79;21080;-74
2021/09/06 04:49:49;;;;;;;3.20;2.70;;;;;;;21.03;61.41;100882.03;1747437;80;21096;-75
2021/09/06 04:52:16;;;;;;;3.08;2.77;;;;;;;21.02;61.41;100882.56;1717641;80;21043;-74
2021/09/06 04:54:44;;;;;;;3.67;2.60;;;;;;;21.01;61.58;100879.53;1757541;79;21554;-74
2021/09/06 04:57:10;;;;;;;2.67;2.47;;;;;;;21.00;61.85;100885.46;1745199;80;21658;-75
2021/09/06 04:59:39;;;;;;;3.77;3.20;;;;;;;21.00;62.14;100879.23;1740469;79;21076;-75
2021/09/06 05:02:06;;;;;;;2.87;2.58;;;;;;;20.93;62.39;100874.35;1708479;82;21063;-75
2021/09/06 05:04:33;;;;;;;3.42;3.12;;;;;;;20.99;62.55;100882.97;1766445;79;21043;-73
2021/09/06 05:07:03;;;;;;;3.50;2.80;;;;;;;20.98;62.76;100880.80;1738825;80;21106;-74
2021/09/06 05:09:31;;;;;;;2.75;2.45;;;;;;;20.99;62.94;100880.27;1751634;81;21069;-74
2021/09/06 05:11:57;;;;;;;2.80;2.52;;;;;;;20.99;62.90;100885.67;1736545;82;21102;-74
2021/09/06 05:14:25;;;;;;;2.87;2.58;;;;;;;20.99;63.01;100883.79;1716658;82;21526;-75
2021/09/06 05:16:54;;;;;;;2.40;2.20;;;;;;;21.00;62.87;100887.34;1744596;79;21028;-74
2021/09/06 05:19:21;;;;;;;2.65;2.45;;;;;;;20.99;62.94;100891.89;1742098;81;21120;-73
2021/09/06 05:21:48;;;;;;;3.17;2.87;;;;;;;21.00;62.80;100890.87;1739434;81;21081;-74
2021/09/06 05:24:14;;;;;;;3.95;2.55;;;;;;;21.01;62.79;100887.64;1745470;80;21690;-74
2021/09/06 05:26:41;;;;;;;2.55;2.35;;;;;;;21.01;62.79;100885.79;1731215;80;21123;-74
2021/09/06 05:29:07;;;;;;;3.62;2.60;;;;;;;21.01;62.82;100883.09;1748118;79;21105;-75
2021/09/06 05:31:35;;;;;;;3.30;3.00;;;;;;;21.03;62.73;100886.08;1765709;80;21143;-73
2021/09/06 05:34:02;;;;;;;2.55;2.35;;;;;;;21.03;62.64;100886.08;1760279;80;21500;-74
2021/09/06 05:36:28;;;;;;;3.83;2.40;;;;;;;21.03;62.52;100886.08;1750393;79;21496;-73
2021/09/06 05:38:57;;;;;;;3.33;2.70;;;;;;;21.03;62.55;100892.84;1748836;80;21098;-73
2021/09/06 05:41:41;;;;;;;2.60;2.37;;;;;;;21.03;62.69;100892.84;1748702;79;21558;-76
2021/09/06 05:44:08;;;;;;;2.55;2.17;;;;;;;21.01;62.55;100888.48;1752950;80;21768;-75
2021/09/06 05:46:35;;;;;;;3.02;2.65;;;;;;;21.02;62.47;100885.27;1760239;80;21023;-74
2021/09/06 05:49:03;;;;;;;2.80;2.60;;;;;;;21.03;62.42;100884.73;1751717;81;21081;-75
2021/09/06 05:51:31;;;;;;;2.42;2.22;;;;;;;21.04;62.13;100889.94;1748075;80;21071;-74
2021/09/06 05:54:00;;;;;;;3.52;2.80;;;;;;;21.03;62.00;100895.01;1746252;80;21063;-75
2021/09/06 05:56:26;;;;;;;2.47;2.20;;;;;;;21.04;62.01;100887.23;1736938;80;21508;-68
2021/09/06 05:58:54;;;;;;;3.55;2.40;;;;;;;21.05;61.63;100870.49;1743578;80;21082;-67
2021/09/06 06:01:23;;;;;;;4.35;2.83;;;;;;;21.06;60.57;100867.59;1728877;80;21073;-68
2021/09/06 06:03:49;;;;;;;3.90;2.80;;;;;;;21.14;60.06;100866.02;1734140;80;21048;-67
2021/09/06 06:06:18;;;;;;;4.70;2.60;;;;;;;21.26;59.69;100870.77;1740186;80;21074;-68
2021/09/06 06:08:46;;;;;;;4.35;2.95;;;;;;;21.36;59.37;100870.66;1746053;81;21504;-69
2021/09/06 06:11:14;;;;;;;4.45;2.80;;;;;;;21.48;59.01;100866.81;1750530;80;21034;-69
2021/09/06 06:13:42;;;;;;;5.40;3.05;;;;;;;21.60;58.87;100875.09;1741745;80;21064;-66
2021/09/06 06:16:10;;;;;;;4.22;2.58;;;;;;;21.72;58.72;100872.55;1737503;82;21562;-70
2021/09/06 06:18:38;;;;;;;3.83;2.47;;;;;;;21.80;58.46;100867.70;1742409;79;21036;-68
2021/09/06 06:21:07;;;;;;;3.80;2.50;;;;;;;21.91;58.13;100868.09;1726605;82;21314;-67
2021/09/06 06:23:37;;;;;;;4.53;2.35;;;;;;;21.99;57.79;100869.19;1711542;82;21093;-70
2021/09/06 06:26:08;;;;;;;4.60;3.15;;;;;;;22.08;57.50;100868.41;1736019;81;21529;-72
2021/09/06 06:28:34;;;;;;;4.80;2.95;;;;;;;22.14;57.35;100865.67;1733667;81;21512;-70
2021/09/06 06:31:02;;;;;;;4.65;2.47;;;;;;;22.22;57.26;100865.12;1726590;80;21101;-68
2021/09/06 06:33:30;;;;;;;4.67;2.55;;;;;;;22.27;57.11;100872.92;1749740;81;21093;-71
2021/09/06 06:35:59;;;;;;;12.18;3.67;;;;;;;22.34;57.09;100880.98;1721999;80;21105;-70
2021/09/06 06:38:27;;;;;;;8.63;2.98;;;;;;;22.41;57.06;100873.66;1738470;81;21510;-69
2021/09/06 06:40:55;;;;;;;3.15;2.52;;;;;;;22.48;56.98;100868.19;1759772;80;21548;-68
2021/09/06 06:43:26;;;;;;;3.45;2.58;;;;;;;22.52;56.72;100877.02;1761265;79;21522;-69
2021/09/06 06:45:53;;;;;;;4.05;2.50;;;;;;;22.57;56.48;100874.47;1759246;79;21271;-69
2021/09/06 06:48:22;;;;;;;6.60;2.50;;;;;;;22.62;56.18;100874.33;1760387;80;21067;-70
2021/09/06 06:50:51;;;;;;;5.55;2.52;;;;;;;22.67;55.93;100870.45;1755689;80;21067;-69
2021/09/06 06:53:18;;;;;;;5.35;2.87;;;;;;;22.71;55.77;100874.36;1755824;80;22503;-69
2021/09/06 06:55:46;;;;;;;13.53;3.90;;;;;;;22.76;55.90;100890.26;1746273;79;21048;-68
2021/09/06 06:58:13;;;;;;;8.33;3.52;;;;;;;22.81;55.94;100895.00;1735836;81;21117;-67
2021/09/06 07:00:39;;;;;;;10.88;3.70;;;;;;;22.84;55.51;100893.22;1747279;79;21132;-68
2021/09/06 07:03:06;;;;;;;6.83;3.15;;;;;;;22.90;55.05;100896.39;1722801;80;21515;-65
2021/09/06 07:05:33;;;;;;;7.30;3.42;;;;;;;22.94;54.66;100895.43;1740775;81;21096;-68
2021/09/06 07:07:59;;;;;;;5.70;3.22;;;;;;;22.99;54.32;100897.49;1721823;82;21044;-67
2021/09/06 07:10:26;;;;;;;4.03;2.72;;;;;;;23.01;53.99;100900.27;1743114;81;21148;-65
2021/09/06 07:12:56;;;;;;;5.70;3.70;;;;;;;23.06;53.65;100905.05;1729592;81;21088;-66
2021/09/06 07:15:22;;;;;;;8.60;3.45;;;;;;;23.09;53.34;100910.85;1747982;79;21065;-67
2021/09/06 07:17:50;;;;;;;7.12;3.52;;;;;;;23.11;53.06;100908.75;1759354;80;21547;-65
2021/09/06 07:20:17;;;;;;;7.50;3.42;;;;;;;23.16;52.79;100904.03;1742587;79;21084;-66
2021/09/06 07:22:44;;;;;;;8.25;3.37;;;;;;;23.19;52.51;100910.34;1745242;81;21149;-65
2021/09/06 07:25:11;;;;;;;6.85;2.95;;;;;;;23.21;52.21;100916.37;1748761;80;21048;-66
2021/09/06 07:27:37;;;;;;;5.62;3.50;;;;;;;23.24;51.93;100899.67;1712070;83;21113;-67
2021/09/06 07:30:08;;;;;;;4.70;3.25;;;;;;;23.27;51.68;100903.27;1734118;80;21092;-68
2021/09/06 07:32:34;;;;;;;3.72;2.72;;;;;;;23.30;51.43;100899.30;1744821;79;21132;-66
2021/09/06 07:35:01;;;;;;;7.97;3.27;;;;;;;23.32;51.21;100904.80;1747133;80;21082;-64
2021/09/06 07:37:30;;;;;;;4.25;3.08;;;;;;;23.35;51.06;100906.22;1754254;81;21545;-64
2021/09/06 07:39:56;;;;;;;4.67;3.87;;;;;;;23.39;50.95;100907.95;1743631;80;21112;-66
2021/09/06 07:42:24;;;;;;;7.95;4.17;;;;;;;23.41;50.89;100909.41;1741063;79;21041;-66
2021/09/06 07:44:50;;;;;;;5.45;4.30;;;;;;;23.45;50.81;100917.90;1733790;81;21100;-66
2021/09/06 07:47:18;;;;;;;6.60;4.00;;;;;;;23.47;50.67;100911.22;1733924;81;21188;-65
2021/09/06 07:49:47;;;;;;;8.38;4.22;;;;;;;23.49;50.70;100907.75;1732742;80;21064;-65
2021/09/06 07:52:14;;;;;;;8.50;4.70;;;;;;;23.52;50.70;100913.24;1748508;81;21049;-64
2021/09/06 07:54:40;;;;;;;10.08;4.72;;;;;;;23.55;50.61;100908.73;1736270;81;21507;-63
2021/09/06 07:57:08;;;;;;;7.28;4.53;;;;;;;23.58;50.53;100911.52;1743039;81;21044;-66
2021/09/06 07:59:35;;;;;;;7.62;5.05;;;;;;;23.59;50.37;100914.01;1736876;80;21158;-69
2021/09/06 08:02:03;;;;;;;5.87;4.08;;;;;;;23.61;50.76;100909.19;1732347;81;21131;-68
2021/09/06 08:04:30;;;;;;;5.95;3.90;;;;;;;23.64;51.75;100911.45;1737637;81;21104;-68
2021/09/06 08:06:58;;;;;;;4.08;3.05;;;;;;;23.66;51.16;100905.28;1741717;80;21077;-67
2021/09/06 08:09:25;;;;;;;8.75;4.20;;;;;;;23.69;50.83;100899.91;1733208;81;21250;-67
2021/09/06 08:11:55;;;;;;;25.02;8.83;;;;;;;23.73;50.72;100903.83;1746855;80;21152;-67
2021/09/06 08:14:21;;;;;;;25.65;9.18;;;;;;;23.74;50.56;100905.50;1745516;81;21021;-67
2021/09/06 08:16:48;;;;;;;24.75;8.98;;;;;;;23.77;50.39;100910.98;1742905;79;21064;-68
2021/09/06 08:19:15;;;;;;;22.17;8.95;;;;;;;23.79;50.31;100911.62;1740448;81;21023;-68
2021/09/06 08:21:42;;;;;;;16.57;7.53;;;;;;;23.81;50.23;100913.58;1739822;81;22276;-67
2021/09/06 08:24:09;;;;;;;15.18;7.53;;;;;;;23.82;50.16;100913.89;1731867;81;22075;-66
2021/09/06 08:26:36;;;;;;;15.45;7.87;;;;;;;23.84;50.14;100914.48;1747396;80;21100;-67
2021/09/06 08:29:04;;;;;;;20.32;9.08;;;;;;;23.86;50.08;100918.63;1741391;81;21112;-66
2021/09/06 08:31:30;;;;;;;20.97;8.68;;;;;;;23.88;50.06;100910.27;1744004;81;21580;-66
2021/09/06 08:34:00;;;;;;;18.00;7.70;;;;;;;23.89;50.01;100910.55;1735797;81;21342;-66
2021/09/06 08:36:27;;;;;;;17.98;8.28;;;;;;;23.90;49.98;100908.97;1744882;81;21048;-67
2021/09/06 08:38:53;;;;;;;13.95;6.80;;;;;;;23.92;49.96;100911.45;1745938;80;21041;-67
2021/09/06 08:41:20;;;;;;;17.98;6.75;;;;;;;23.94;49.84;100907.98;1751633;81;21049;-65
2021/09/06 08:43:47;;;;;;;13.80;7.03;;;;;;;23.96;49.67;100910.48;1741650;81;20989;-66
2021/09/06 08:46:15;;;;;;;14.75;6.87;;;;;;;23.98;49.87;100911.90;1744256;81;21072;-67
2021/09/06 08:48:43;;;;;;;14.98;6.12;;;;;;;24.00;49.98;100907.06;1744178;79;21569;-69
2021/09/06 08:51:09;;;;;;;14.75;7.22;;;;;;;24.01;50.05;100901.95;1744217;81;21628;-68
2021/09/06 08:53:36;;;;;;;15.28;5.87;;;;;;;24.03;50.11;100909.84;1732962;81;21571;-67
2021/09/06 08:56:03;;;;;;;10.25;5.83;;;;;;;24.05;50.09;100905.02;1736504;81;21080;-67
2021/09/06 08:58:30;;;;;;;10.20;5.17;;;;;;;24.06;49.81;100908.04;1737222;81;21147;-70
2021/09/06 09:00:57;;;;;;;11.43;5.12;;;;;;;24.08;49.72;100914.06;1743292;81;21078;-67
2021/09/06 09:03:32;;;;;;;11.75;4.95;;;;;;;24.09;49.47;100913.84;1740317;80;21015;-68
2021/09/06 09:06:05;;;;;;;14.35;5.22;;;;;;;24.10;49.26;100910.05;1747033;80;21100;-67
2021/09/06 09:08:33;;;;;;;12.73;5.72;;;;;;;24.13;49.00;100914.22;1740592;81;21271;-68
2021/09/06 09:11:04;;;;;;;13.58;5.03;;;;;;;24.16;48.80;100911.56;1736841;81;21716;-68
2021/09/06 09:13:49;;;;;;;11.95;5.20;;;;;;;24.20;48.72;100905.97;1748148;81;21235;-66
2021/09/06 09:16:30;;;;;;;9.98;5.25;;;;;;;24.21;48.63;100909.00;1728645;80;21080;-66
2021/09/06 09:19:17;;;;;;;9.30;4.85;;;;;;;24.24;48.46;100911.23;1658219;84;21090;-68
2021/09/06 09:21:56;;;;;;;11.35;4.97;;;;;;;24.27;48.23;100913.50;1618164;86;21090;-66
2021/09/06 09:24:26;;;;;;;7.45;4.28;;;;;;;24.29;48.03;100910.02;1689793;82;21517;-69
2021/09/06 09:27:08;;;;;;;7.33;4.37;;;;;;;24.32;47.91;100906.86;1729188;81;21131;-68
2021/09/06 09:31:23;;;;;;;11.88;5.10;;;;;;;24.43;48.17;100903.33;1881548;76;22672;-67
2021/09/06 09:33:54;;;;;;;8.45;4.03;;;;;;;24.41;48.25;100900.55;1854311;77;21172;-68
2021/09/06 09:36:35;;;;;;;8.78;4.45;;;;;;;24.45;48.31;100905.28;1832676;77;21117;-68
2021/09/06 09:39:13;;;;;;;9.98;4.12;;;;;;;24.47;48.29;100907.27;1846538;77;21528;-67
2021/09/06 09:41:43;;;;;;;9.48;4.53;;;;;;;24.51;48.24;100907.63;1843089;77;21030;-68
2021/09/06 09:44:16;;;;;;;9.43;5.10;;;;;;;24.52;48.15;100910.12;1858269;77;21532;-67
2021/09/06 09:46:56;;;;;;;7.62;4.75;;;;;;;24.53;48.05;100906.36;1848396;77;20976;-68
2021/09/06 09:49:26;;;;;;;5.75;4.35;;;;;;;24.55;47.88;100906.13;1838456;77;21155;-67
2021/09/06 09:51:54;;;;;;;7.10;5.00;;;;;;;24.56;47.82;100906.95;1846994;77;21000;-68
2021/09/06 09:54:20;;;;;;;7.58;4.37;;;;;;;24.57;47.83;100912.67;1849184;76;21002;-70
2021/09/06 09:56:48;;;;;;;6.78;4.45;;;;;;;24.57;47.79;100909.44;1862787;77;21012;-69
2021/09/06 09:59:18;;;;;;;6.17;3.75;;;;;;;24.58;47.79;100910.27;1844328;77;21073;-67
2021/09/06 10:02:07;;;;;;;6.03;4.08;;;;;;;24.58;47.78;100916.52;1836696;77;21108;-66
2021/09/06 10:04:38;;;;;;;5.60;3.90;;;;;;;24.58;47.73;100911.63;1846422;77;21556;-67
2021/09/06 10:07:05;;;;;;;7.28;3.80;;;;;;;24.56;47.65;100917.82;1854713;77;21004;-67
2021/09/06 10:09:44;;;;;;;8.78;4.67;;;;;;;24.54;47.59;100912.61;1855555;76;21100;-68
2021/09/06 10:12:20;;;;;;;5.33;3.47;;;;;;;24.53;47.63;100912.30;1853564;76;21029;-67
2021/09/06 10:14:53;;;;;;;5.85;3.92;;;;;;;24.51;47.64;100903.55;1830870;77;21068;-68
2021/09/06 10:17:44;;;;;;;4.70;3.67;;;;;;;24.49;47.63;100907.00;1849847;77;21555;-68
2021/09/06 10:20:17;;;;;;;7.28;4.05;;;;;;;24.48;47.72;100914.87;1850553;76;21053;-66
2021/09/06 10:22:45;;;;;;;7.83;3.55;;;;;;;24.45;47.68;100912.06;1861648;77;21685;-67
2021/09/06 10:25:19;;;;;;;5.53;3.52;;;;;;;24.44;47.47;100918.58;1854063;77;21024;-68
2021/09/06 10:27:55;;;;;;;6.83;3.55;;;;;;;24.43;47.30;100918.27;1846925;76;21100;-67
2021/09/06 10:30:35;;;;;;;7.50;3.60;;;;;;;24.44;47.17;100921.83;1842992;76;21059;-67
2021/09/06 10:33:02;;;;;;;6.08;3.40;;;;;;;24.42;47.12;100916.62;1837837;77;21068;-67
2021/09/06 10:35:29;;;;;;;5.70;3.90;;;;;;;24.44;47.09;100919.94;1846983;77;21008;-67
2021/09/06 10:38:03;;;;;;;4.90;3.98;;;;;;;24.46;47.08;100916.45;1834557;77;21006;-67
2021/09/06 10:40:36;;;;;;;5.67;3.77;;;;;;;24.43;47.04;100906.05;1816660;77;21820;-67
2021/09/06 10:43:16;;;;;;;5.45;3.30;;;;;;;24.52;47.02;100916.09;1834214;77;21485;-67
2021/09/06 10:45:50;;;;;;;4.05;3.65;;;;;;;24.55;46.96;100913.43;1848614;77;20969;-68
2021/09/06 10:48:24;;;;;;;4.72;3.70;;;;;;;24.58;46.90;100912.98;1844999;77;21048;-67
2021/09/06 10:50:52;;;;;;;4.72;3.55;;;;;;;24.60;46.86;100913.03;1839797;77;21037;-67
2021/09/06 10:53:21;;;;;;;4.35;3.35;;;;;;;24.62;46.95;100909.55;1841555;77;21429;-67
2021/09/06 10:55:56;;;;;;;4.62;3.35;;;;;;;24.65;46.89;100905.56;1841232;77;21001;-67
2021/09/06 10:58:27;;;;;;;4.95;2.98;;;;;;;24.69;46.81;100910.83;1841555;77;21038;-67
2021/09/06 11:00:59;;;;;;;4.65;3.42;;;;;;;24.70;46.73;100904.31;1840117;77;21624;-69
2021/09/06 11:03:30;;;;;;;4.42;2.92;;;;;;;24.72;46.64;100913.05;1848752;77;21535;-69
2021/09/06 11:05:58;;;;;;;6.55;3.30;;;;;;;24.75;46.57;100907.16;1819034;77;21178;-67
2021/09/06 11:08:32;;;;;;;4.53;3.10;;;;;;;24.77;46.44;100903.68;1848164;77;20970;-67
2021/09/06 11:11:00;;;;;;;4.12;2.90;;;;;;;24.79;46.39;100897.48;1847739;77;21053;-66
2021/09/06 11:13:45;;;;;;;4.33;2.75;;;;;;;24.81;46.24;100889.92;1849167;77;21040;-68
2021/09/06 11:16:14;;;;;;;6.40;2.83;;;;;;;24.83;46.28;100897.30;1842756;77;21157;-67
2021/09/06 11:18:45;;;;;;;4.62;3.22;;;;;;;24.85;46.60;100893.00;1849818;77;21134;-66
2021/09/06 11:21:14;;;;;;;4.83;2.92;;;;;;;24.86;46.84;100892.77;1842763;77;21080;-67
2021/09/06 11:23:44;;;;;;;5.10;3.10;;;;;;;24.87;47.04;100893.05;1849143;77;21044;-67
2021/09/06 11:26:24;;;;;;;6.33;3.25;;;;;;;24.88;47.18;100896.08;1842696;77;21049;-67
2021/09/06 11:28:52;;;;;;;3.42;2.90;;;;;;;24.88;47.25;100896.62;1830552;77;21000;-67
2021/09/06 11:31:21;;;;;;;3.45;2.60;;;;;;;24.88;47.25;100898.80;1832293;75;21863;-68
2021/09/06 11:34:00;;;;;;;5.85;3.00;;;;;;;24.90;47.24;100897.21;1840094;77;21000;-68
2021/09/06 11:36:30;;;;;;;4.22;2.50;;;;;;;24.91;47.17;100897.48;1851945;76;21500;-69